Everglades City, Florida
Current Conditions -  °F | °C
As of 6:35 PM on Friday 19 Dec 2014 (Local Time) from KMKY Reporting Station
Clear Clear  
Wind Chill: 64°   Ceiling: Unl
Heat Index: 64°   Visibility: 10mi
Dew Point: 55°   Wind: 3mph
Humidity: 73%   Direction: 330°NNW
Pressure: 30.05"   Gusts: NA
Location:  25.86°N, 81.38°W
Report Text: KMKY 192335Z AUTO 33003KT 10SM CLR 18/13 A3005 RMK AO1
Loading
Personal Weather Stations






























Interactive Weather Map New forecast layout! Learn more

10-Day Weather Forecast

Advertisements
Track Severe Weather on mobile